createdAt,value
2019-04-29T00:02:14.121Z,6.63
2019-04-29T00:04:44.506Z,6.33
2019-04-29T00:07:15.087Z,7.87
2019-04-29T00:09:45.628Z,7.23
2019-04-29T00:12:16.223Z,7.07
2019-04-29T00:14:50.980Z,7.47
2019-04-29T00:17:26.485Z,6.77
2019-04-29T00:20:01.148Z,6.33
2019-04-29T00:22:31.691Z,6.50
2019-04-29T00:25:02.314Z,7.40
2019-04-29T00:27:32.745Z,7.40
2019-04-29T00:30:03.315Z,5.43
2019-04-29T00:32:33.671Z,5.90
2019-04-29T00:35:04.356Z,7.90
2019-04-29T00:37:45.909Z,7.70
2019-04-29T00:40:21.584Z,7.47
2019-04-29T00:42:56.182Z,5.93
2019-04-29T00:45:26.901Z,6.60
2019-04-29T00:47:57.445Z,6.10
2019-04-29T00:50:28.074Z,6.70
2019-04-29T00:52:58.483Z,5.37
2019-04-29T00:55:29.205Z,7.00
2019-04-29T00:57:59.681Z,6.63
2019-04-29T01:00:34.769Z,6.60
2019-04-29T01:03:05.168Z,7.50
2019-04-29T01:05:35.878Z,7.27
2019-04-29T01:08:06.341Z,7.40
2019-04-29T01:10:37.265Z,7.20
2019-04-29T01:13:07.932Z,7.57
2019-04-29T01:15:38.635Z,6.53
2019-04-29T01:18:09.164Z,7.93
2019-04-29T01:20:39.673Z,8.17
2019-04-29T01:23:10.276Z,8.00
2019-04-29T01:25:41.016Z,6.40
2019-04-29T01:28:15.533Z,8.73
2019-04-29T01:30:56.567Z,8.37
2019-04-29T01:33:27.121Z,8.33
2019-04-29T01:36:16.715Z,8.50
2019-04-29T01:38:48.813Z,8.73
2019-04-29T01:41:19.065Z,7.30
2019-04-29T01:43:54.650Z,9.17
2019-04-29T01:46:25.125Z,8.47
2019-04-29T01:48:55.500Z,8.93
2019-04-29T01:51:26.164Z,8.93
2019-04-29T01:53:56.650Z,8.33
2019-04-29T01:56:27.341Z,9.10
2019-04-29T01:58:57.933Z,7.77
2019-04-29T02:01:28.340Z,7.77
2019-04-29T02:03:58.715Z,8.67
2019-04-29T02:06:29.208Z,6.17
2019-04-29T02:08:59.824Z,7.20
2019-04-29T02:11:30.296Z,7.70
2019-04-29T02:14:00.757Z,6.50
2019-04-29T02:16:31.209Z,7.30
2019-04-29T02:19:01.620Z,7.70
2019-04-29T02:21:32.178Z,6.73
2019-04-29T02:24:11.264Z,6.97
2019-04-29T02:26:41.729Z,5.90
2019-04-29T02:29:12.341Z,6.03
2019-04-29T02:31:43.622Z,6.70
2019-04-29T02:34:14.052Z,6.67
2019-04-29T02:36:44.571Z,6.40
2019-04-29T02:39:26.149Z,6.10
2019-04-29T02:42:04.918Z,7.23
2019-04-29T02:44:35.534Z,6.43
2019-04-29T02:47:06.180Z,6.50
2019-04-29T02:49:36.530Z,5.90
2019-04-29T02:52:06.894Z,5.83
2019-04-29T02:54:37.390Z,6.60
2019-04-29T02:57:11.220Z,6.57
2019-04-29T02:59:44.117Z,7.67
2019-04-29T03:02:21.188Z,7.20
2019-04-29T03:04:56.731Z,6.93
2019-04-29T03:07:27.146Z,7.60
2019-04-29T03:09:57.688Z,6.70
2019-04-29T03:12:28.332Z,7.40
2019-04-29T03:14:58.924Z,7.03
2019-04-29T03:17:29.493Z,6.80
2019-04-29T03:20:04.989Z,7.27
2019-04-29T03:22:35.929Z,6.80
2019-04-29T03:25:06.577Z,6.23
2019-04-29T03:27:37.168Z,6.90
2019-04-29T03:30:07.558Z,7.77
2019-04-29T03:32:38.129Z,6.13
2019-04-29T03:35:08.663Z,6.30
2019-04-29T03:37:39.273Z,6.97
2019-04-29T03:40:10.097Z,6.67
2019-04-29T03:42:40.508Z,6.70
2019-04-29T03:45:10.989Z,7.03
2019-04-29T03:47:41.558Z,5.40
2019-04-29T03:50:12.202Z,5.53
2019-04-29T03:52:42.618Z,7.47
2019-04-29T03:55:13.042Z,6.23
2019-04-29T03:57:43.682Z,7.13
2019-04-29T04:00:14.419Z,8.07
2019-04-29T04:02:49.038Z,7.50
2019-04-29T04:05:30.722Z,7.10
2019-04-29T04:08:08.112Z,6.83
2019-04-29T04:10:38.543Z,7.30
2019-04-29T04:13:09.177Z,7.00
2019-04-29T04:15:39.711Z,6.53
2019-04-29T04:18:16.374Z,5.83
2019-04-29T04:20:47.267Z,6.03
2019-04-29T04:23:17.885Z,6.57
2019-04-29T04:25:48.368Z,5.10
2019-04-29T04:28:18.998Z,6.67
2019-04-29T04:30:49.289Z,6.33
2019-04-29T04:33:19.789Z,7.13
2019-04-29T04:35:50.537Z,7.53
2019-04-29T04:38:21.130Z,7.63
2019-04-29T04:41:00.655Z,6.93
2019-04-29T04:43:31.192Z,6.70
2019-04-29T04:46:01.801Z,4.97
2019-04-29T04:48:32.341Z,6.87
2019-04-29T04:51:02.821Z,6.83
2019-04-29T04:53:33.240Z,6.53
2019-04-29T04:56:03.725Z,7.00
2019-04-29T04:58:34.336Z,5.60
2019-04-29T05:01:04.969Z,5.77
2019-04-29T05:03:35.548Z,6.27
2019-04-29T05:06:06.033Z,5.67
2019-04-29T05:08:36.481Z,5.83
2019-04-29T05:11:06.977Z,5.77
2019-04-29T05:13:37.361Z,4.47
2019-04-29T05:16:07.964Z,5.43
2019-04-29T05:18:38.225Z,5.83
2019-04-29T05:21:08.586Z,5.07
2019-04-29T05:23:41.506Z,4.80
2019-04-29T05:26:08.645Z,5.10
2019-04-29T05:28:39.068Z,4.23
2019-04-29T05:31:09.505Z,5.10
2019-04-29T05:33:39.866Z,5.57
2019-04-29T05:36:15.169Z,6.00
2019-04-29T05:38:49.885Z,6.33
2019-04-29T05:41:21.334Z,5.60
2019-04-29T05:44:10.176Z,6.40
2019-04-29T05:46:55.141Z,6.23
2019-04-29T05:49:29.660Z,5.87
2019-04-29T05:53:11.643Z,5.50
2019-04-29T05:55:38.432Z,6.80
2019-04-29T05:58:12.713Z,5.33
2019-04-29T06:00:47.677Z,6.47
2019-04-29T06:03:18.181Z,5.53
2019-04-29T06:05:48.736Z,5.70
2019-04-29T06:08:19.272Z,5.13
2019-04-29T06:10:49.782Z,4.13
2019-04-29T06:13:19.580Z,5.93
2019-04-29T06:15:49.872Z,6.37
2019-04-29T06:18:22.254Z,5.47
2019-04-29T06:20:50.779Z,6.37
2019-04-29T06:23:23.208Z,6.23
2019-04-29T06:25:51.681Z,5.40
2019-04-29T06:28:26.409Z,5.60
2019-04-29T06:30:52.493Z,4.70
2019-04-29T06:33:24.322Z,5.03
2019-04-29T06:35:56.697Z,4.53
2019-04-29T06:38:24.265Z,5.57
2019-04-29T06:40:54.742Z,4.80
2019-04-29T06:43:28.871Z,5.50
2019-04-29T06:45:55.724Z,5.67
2019-04-29T06:48:26.068Z,5.03
2019-04-29T06:50:56.625Z,6.67
2019-04-29T06:53:27.124Z,5.27
2019-04-29T06:55:57.617Z,5.90
2019-04-29T06:58:28.213Z,5.60
2019-04-29T07:01:01.138Z,5.40
2019-04-29T07:03:29.057Z,5.60
2019-04-29T07:05:59.609Z,5.70
2019-04-29T07:08:30.192Z,5.13
2019-04-29T07:11:01.053Z,7.57
2019-04-29T07:13:30.233Z,7.97
2019-04-29T07:16:00.910Z,6.20
2019-04-29T07:18:31.385Z,6.17
2019-04-29T07:21:01.127Z,5.30
2019-04-29T07:23:31.544Z,5.57
2019-04-29T07:26:02.224Z,4.67
2019-04-29T07:28:32.524Z,4.70
2019-04-29T07:31:03.310Z,7.60
2019-04-29T07:33:33.321Z,6.10
2019-04-29T07:36:10.715Z,5.97
2019-04-29T07:38:41.102Z,6.00
2019-04-29T07:41:04.733Z,5.53
2019-04-29T07:43:38.689Z,5.53
2019-04-29T07:46:10.564Z,5.70
2019-04-29T07:48:41.812Z,5.13
2019-04-29T07:51:10.717Z,5.27
2019-04-29T07:53:45.597Z,5.90
2019-04-29T07:56:11.572Z,5.40
2019-04-29T07:58:41.904Z,5.70
2019-04-29T08:01:12.397Z,6.50
2019-04-29T08:03:42.809Z,5.50
2019-04-29T08:06:13.405Z,6.30
2019-04-29T08:08:54.408Z,6.80
2019-04-29T08:11:14.913Z,8.00
2019-04-29T08:13:45.390Z,6.53
2019-04-29T08:16:17.132Z,7.00
2019-04-29T08:18:49.640Z,6.87
2019-04-29T08:21:16.678Z,7.57
2019-04-29T08:23:46.960Z,7.53
2019-04-29T08:26:16.768Z,7.17
2019-04-29T08:28:46.695Z,8.00
2019-04-29T08:31:21.087Z,7.57
2019-04-29T08:33:48.488Z,7.90
2019-04-29T08:36:17.812Z,8.13
2019-04-29T08:38:48.181Z,7.50
2019-04-29T08:41:21.027Z,8.00
2019-04-29T08:44:54.751Z,8.73
2019-04-29T08:47:30.446Z,8.83
2019-04-29T08:49:55.433Z,8.50
2019-04-29T08:52:25.862Z,9.67
2019-04-29T08:54:57.371Z,10.33
2019-04-29T08:57:26.756Z,11.30
2019-04-29T08:59:57.364Z,10.33
2019-04-29T09:02:35.282Z,10.00
2019-04-29T09:04:58.217Z,10.97
2019-04-29T09:07:28.706Z,12.07
2019-04-29T09:10:01.766Z,13.93
2019-04-29T09:12:29.702Z,17.30
2019-04-29T09:15:00.133Z,16.87
2019-04-29T09:17:30.349Z,18.77
2019-04-29T09:20:00.691Z,19.77
2019-04-29T09:22:31.522Z,18.47
2019-04-29T09:25:06.820Z,19.20
2019-04-29T09:27:40.764Z,17.27
2019-04-29T09:30:08.852Z,13.87
2019-04-29T09:32:39.981Z,17.47
2019-04-29T09:35:09.861Z,17.50
2019-04-29T09:37:40.244Z,17.70
2019-04-29T09:40:11.345Z,18.90
2019-04-29T09:42:50.319Z,16.57
2019-04-29T09:45:25.933Z,17.77
2019-04-29T09:47:56.285Z,22.57
2019-04-29T09:50:28.502Z,24.80
2019-04-29T09:52:57.037Z,19.33
2019-04-29T09:55:27.416Z,27.33
2019-04-29T09:57:57.815Z,20.73
2019-04-29T10:00:51.445Z,20.40
2019-04-29T10:03:29.963Z,20.77
2019-04-29T10:06:04.380Z,21.67
2019-04-29T10:08:34.776Z,21.67
2019-04-29T10:11:05.384Z,21.20
2019-04-29T10:13:35.663Z,23.60
2019-04-29T10:16:13.049Z,20.33
2019-04-29T10:18:47.781Z,17.73
2019-04-29T10:21:21.388Z,20.97
2019-04-29T10:23:48.529Z,21.93
2019-04-29T10:26:19.128Z,21.50
2019-04-29T10:28:56.205Z,24.00
2019-04-29T10:31:26.640Z,21.63
2019-04-29T10:33:57.250Z,20.33
2019-04-29T10:36:27.640Z,20.13
2019-04-29T10:39:00.301Z,21.07
2019-04-29T10:41:35.983Z,23.83
2019-04-29T10:44:14.570Z,24.83
2019-04-29T10:46:52.883Z,24.37
2019-04-29T10:49:34.714Z,20.80
2019-04-29T10:52:04.669Z,24.27
2019-04-29T10:54:34.538Z,25.73
2019-04-29T10:57:05.235Z,26.23
2019-04-29T10:59:40.469Z,26.90
2019-04-29T11:02:32.406Z,28.23
2019-04-29T11:05:11.841Z,24.37
2019-04-29T11:07:39.720Z,26.33
2019-04-29T11:10:24.818Z,28.80
2019-04-29T11:12:48.344Z,23.67
2019-04-29T11:15:19.033Z,28.53
2019-04-29T11:17:58.482Z,30.30
2019-04-29T11:20:21.641Z,29.33
2019-04-29T11:22:58.317Z,36.73
2019-04-29T11:25:42.699Z,31.67
2019-04-29T11:28:16.109Z,32.03
2019-04-29T11:30:43.761Z,34.20
2019-04-29T11:33:19.303Z,33.87
2019-04-29T11:35:53.723Z,34.67
2019-04-29T11:38:24.305Z,31.27
2019-04-29T11:40:54.989Z,35.40
2019-04-29T11:43:25.514Z,36.03
2019-04-29T11:45:56.520Z,30.23
2019-04-29T11:48:26.981Z,32.43
2019-04-29T11:51:01.606Z,34.57
2019-04-29T11:53:31.860Z,35.80
2019-04-29T11:56:02.379Z,33.13
2019-04-29T11:58:38.723Z,33.53
2019-04-29T12:01:37.342Z,31.43
2019-04-29T12:03:56.470Z,28.50
2019-04-29T12:06:24.406Z,33.67
2019-04-29T12:08:55.229Z,30.40
2019-04-29T12:11:28.621Z,32.93
2019-04-29T12:14:27.363Z,34.77
2019-04-29T12:17:03.766Z,33.27
2019-04-29T12:19:34.767Z,32.37
2019-04-29T12:22:08.979Z,32.77
2019-04-29T12:24:35.796Z,34.80
2019-04-29T12:27:05.723Z,31.63
2019-04-29T12:29:36.028Z,31.30
2019-04-29T12:32:26.691Z,31.73
2019-04-29T12:35:07.917Z,33.47
2019-04-29T12:38:50.692Z,30.10
2019-04-29T12:42:22.942Z,35.00
2019-04-29T12:44:57.259Z,31.03
2019-04-29T12:47:30.812Z,31.87
2019-04-29T12:50:01.273Z,33.30
2019-04-29T12:52:31.580Z,32.57
2019-04-29T12:55:18.942Z,33.00
2019-04-29T12:57:31.577Z,32.97
2019-04-29T13:00:01.992Z,30.67
2019-04-29T13:02:38.149Z,37.93
2019-04-29T13:06:11.102Z,31.20
2019-04-29T13:08:44.828Z,33.57
2019-04-29T13:11:19.176Z,32.50
2019-04-29T13:13:46.032Z,33.87
2019-04-29T13:16:22.860Z,36.50
2019-04-29T13:19:10.663Z,35.63
2019-04-29T13:21:28.890Z,31.63
2019-04-29T13:24:12.773Z,32.03
2019-04-29T13:26:33.265Z,34.07
2019-04-29T13:29:01.610Z,32.50
2019-04-29T13:31:38.616Z,35.07
2019-04-29T13:34:09.198Z,36.00
2019-04-29T13:36:31.780Z,33.33
2019-04-29T13:39:01.997Z,34.50
2019-04-29T13:41:32.389Z,33.93
2019-04-29T13:44:07.293Z,32.97
2019-04-29T13:46:39.553Z,32.10
2019-04-29T13:50:21.644Z,31.70
2019-04-29T13:52:47.301Z,34.20
2019-04-29T13:55:45.333Z,32.73
2019-04-29T13:57:49.562Z,33.53
2019-04-29T14:00:26.898Z,32.23
2019-04-29T14:03:01.575Z,32.10
2019-04-29T14:05:32.415Z,33.23
2019-04-29T14:08:03.990Z,32.10
2019-04-29T14:10:32.989Z,31.10
2019-04-29T14:13:11.724Z,31.27
2019-04-29T14:15:38.022Z,33.47
2019-04-29T14:18:06.878Z,34.77
2019-04-29T14:20:34.932Z,32.97
2019-04-29T14:23:04.677Z,33.70
2019-04-29T14:25:35.073Z,33.67
2019-04-29T14:28:05.550Z,34.83
2019-04-29T14:30:38.825Z,35.17
2019-04-29T14:33:06.681Z,35.60
2019-04-29T14:35:48.274Z,34.03
2019-04-29T14:38:15.705Z,34.57
2019-04-29T14:40:46.193Z,35.37
2019-04-29T14:43:28.411Z,34.57
2019-04-29T14:48:04.950Z,35.27
2019-04-29T14:50:35.376Z,34.40
2019-04-29T14:53:05.765Z,34.93
2019-04-29T14:55:36.277Z,34.53
2019-04-29T14:58:06.040Z,34.70
2019-04-29T15:01:39.213Z,34.87
2019-04-29T15:04:18.296Z,37.93
2019-04-29T15:06:41.233Z,36.90
2019-04-29T15:09:16.986Z,36.23
2019-04-29T15:11:50.430Z,37.07
2019-04-29T15:14:27.970Z,36.03
2019-04-29T15:17:02.141Z,35.57
2019-04-29T15:19:38.612Z,34.80
2019-04-29T15:22:10.575Z,34.43
2019-04-29T15:24:40.396Z,34.70
2019-04-29T15:27:10.650Z,34.23
2019-04-29T15:29:40.962Z,37.80
2019-04-29T15:32:11.413Z,34.53
2019-04-29T15:34:43.919Z,35.67
2019-04-29T15:37:12.405Z,34.50
2019-04-29T15:39:46.065Z,35.40
2019-04-29T15:42:13.262Z,35.60
2019-04-29T15:44:43.662Z,36.60
2019-04-29T15:47:14.238Z,38.97
2019-04-29T15:49:44.573Z,45.50
2019-04-29T15:52:16.025Z,43.80
2019-04-29T15:54:45.911Z,42.50
2019-04-29T15:57:16.282Z,38.87
2019-04-29T16:02:16.678Z,42.93
2019-04-29T16:04:51.365Z,42.53
2019-04-29T16:07:26.652Z,43.13
2019-04-29T16:10:08.471Z,41.77
2019-04-29T16:12:45.409Z,44.20
2019-04-29T16:15:13.814Z,45.40
2019-04-29T16:17:44.236Z,42.63
2019-04-29T16:20:14.672Z,39.33
2019-04-29T16:22:45.184Z,38.37
2019-04-29T16:25:15.722Z,40.90
2019-04-29T16:27:53.051Z,41.97
2019-04-29T16:30:18.984Z,37.97
2019-04-29T16:32:47.649Z,37.63
2019-04-29T16:35:23.192Z,42.60
2019-04-29T16:37:48.537Z,40.37
2019-04-29T16:40:19.017Z,40.57
2019-04-29T16:42:54.490Z,37.67
2019-04-29T16:45:28.234Z,36.33
2019-04-29T16:47:58.701Z,36.00
2019-04-29T16:50:29.117Z,33.60
2019-04-29T16:52:59.425Z,33.53
2019-04-29T16:55:29.824Z,36.27
2019-04-29T16:58:07.730Z,32.50
2019-04-29T17:00:32.462Z,32.70
2019-04-29T17:03:02.848Z,33.80
2019-04-29T17:05:33.252Z,31.80
2019-04-29T17:08:09.477Z,36.77
2019-04-29T17:10:43.272Z,34.47
2019-04-29T17:13:16.755Z,37.67
2019-04-29T17:15:44.614Z,37.20
2019-04-29T17:18:14.918Z,38.67
2019-04-29T17:20:45.365Z,37.63
2019-04-29T17:23:23.859Z,37.20
2019-04-29T17:25:46.237Z,35.73
2019-04-29T17:28:29.193Z,36.13
2019-04-29T17:33:07.924Z,38.17
2019-04-29T17:35:17.510Z,42.40
2019-04-29T17:35:42.961Z,37.30
2019-04-29T17:38:09.361Z,37.77
2019-04-29T17:40:50.611Z,37.13
2019-04-29T17:43:15.241Z,39.30
2019-04-29T17:45:52.576Z,38.87
2019-04-29T17:48:34.016Z,36.97
2019-04-29T17:51:07.360Z,35.60
2019-04-29T17:53:42.164Z,37.27
2019-04-29T17:56:32.331Z,36.57
2019-04-29T17:59:06.748Z,35.80
2019-04-29T18:01:45.201Z,35.27
2019-04-29T18:04:22.449Z,40.47
2019-04-29T18:07:08.199Z,47.80
2019-04-29T18:09:39.383Z,42.93
2019-04-29T18:12:26.980Z,42.23
2019-04-29T18:14:57.460Z,38.70
2019-04-29T18:17:31.298Z,41.83
2019-04-29T18:21:09.456Z,39.13
2019-04-29T18:23:51.568Z,37.07
2019-04-29T18:26:25.786Z,35.60
2019-04-29T18:28:56.821Z,36.60
2019-04-29T18:31:30.278Z,36.70
2019-04-29T18:33:58.314Z,38.67
2019-04-29T18:36:27.854Z,40.90
2019-04-29T18:38:58.264Z,37.33
2019-04-29T18:41:28.917Z,41.87
2019-04-29T18:44:02.916Z,39.57
2019-04-29T18:46:29.766Z,47.90
2019-04-29T18:49:02.779Z,42.33
2019-04-29T18:51:30.538Z,44.53
2019-04-29T18:54:00.858Z,41.83
2019-04-29T18:56:32.250Z,40.53
2019-04-29T18:59:01.568Z,41.83
2019-04-29T19:01:32.653Z,40.50
2019-04-29T19:04:16.355Z,39.60
2019-04-29T19:06:41.228Z,39.30
2019-04-29T19:09:17.756Z,42.77
2019-04-29T19:11:42.425Z,39.03
2019-04-29T19:14:12.935Z,42.93
2019-04-29T19:16:43.425Z,38.63
2019-04-29T19:19:15.414Z,38.37
2019-04-29T19:21:45.532Z,39.43
2019-04-29T19:24:16.190Z,34.83
2019-04-29T19:26:45.936Z,33.77
2019-04-29T19:29:16.473Z,33.23
2019-04-29T19:31:49.793Z,35.10
2019-04-29T19:34:18.802Z,33.47
2019-04-29T19:36:50.790Z,33.17
2019-04-29T19:39:21.701Z,34.80
2019-04-29T19:41:51.548Z,37.00
2019-04-29T19:44:20.497Z,40.10
2019-04-29T19:46:51.109Z,50.73
2019-04-29T19:49:21.668Z,39.03
2019-04-29T19:51:52.021Z,37.50
2019-04-29T19:54:24.720Z,48.87
2019-04-29T19:56:55.964Z,62.60
2019-04-29T19:59:25.623Z,49.80
2019-04-29T20:02:03.974Z,51.77
2019-04-29T20:04:32.009Z,50.30
2019-04-29T20:07:07.331Z,49.53
2019-04-29T20:09:34.055Z,33.93
2019-04-29T20:12:11.848Z,32.10
2019-04-29T20:14:36.978Z,33.20
2019-04-29T20:17:15.051Z,31.77
2019-04-29T20:19:55.498Z,31.40
2019-04-29T20:22:20.210Z,36.53
2019-04-29T20:24:50.868Z,33.33
2019-04-29T20:27:21.119Z,32.00
2019-04-29T20:29:51.131Z,32.37
2019-04-29T20:32:22.445Z,32.23
2019-04-29T20:34:51.997Z,32.03
2019-04-29T20:37:22.649Z,32.33
2019-04-29T20:39:59.030Z,40.13
2019-04-29T20:42:25.668Z,34.53
2019-04-29T20:44:55.170Z,33.83
2019-04-29T20:47:37.249Z,35.00
2019-04-29T20:49:55.444Z,31.43
2019-04-29T20:52:31.023Z,34.07
2019-04-29T20:55:02.620Z,33.03
2019-04-29T20:57:32.017Z,34.87
2019-04-29T21:00:02.644Z,33.50
2019-04-29T21:02:35.289Z,34.63
2019-04-29T21:05:02.973Z,31.83
2019-04-29T21:07:33.310Z,33.43
2019-04-29T21:10:06.966Z,35.53
2019-04-29T21:12:39.496Z,35.17
2019-04-29T21:15:55.572Z,36.87
2019-04-29T21:18:53.200Z,35.63
2019-04-29T21:21:17.838Z,34.10
2019-04-29T21:26:46.057Z,31.57
2019-04-29T21:29:19.264Z,30.90
2019-04-29T21:31:46.064Z,31.37
2019-04-29T21:34:17.540Z,33.50
2019-04-29T21:37:25.855Z,31.87
2019-04-29T21:40:18.725Z,33.43
2019-04-29T21:42:49.841Z,32.13
2019-04-29T21:45:20.548Z,33.30
2019-04-29T21:47:53.197Z,34.13
2019-04-29T21:50:21.829Z,33.87
2019-04-29T21:52:56.981Z,35.27
2019-04-29T21:55:25.919Z,32.73
2019-04-29T21:57:54.438Z,33.83
2019-04-29T22:00:24.430Z,38.87
2019-04-29T22:02:55.418Z,33.43
2019-04-29T22:05:25.194Z,38.57
2019-04-29T22:07:55.540Z,33.00
2019-04-29T22:10:29.017Z,35.07
2019-04-29T22:13:01.792Z,34.57
2019-04-29T22:15:32.679Z,33.97
2019-04-29T22:18:01.277Z,33.27
2019-04-29T22:20:29.005Z,34.53
2019-04-29T22:22:59.936Z,35.17
2019-04-29T22:25:30.569Z,34.13
2019-04-29T22:28:01.273Z,32.13
2019-04-29T22:30:31.813Z,31.30
2019-04-29T22:33:02.255Z,34.37
2019-04-29T22:35:36.572Z,34.23
2019-04-29T22:38:03.326Z,35.60
2019-04-29T22:40:40.729Z,34.80
2019-04-29T22:43:14.228Z,32.10
2019-04-29T22:45:42.408Z,30.17
2019-04-29T22:48:18.965Z,28.97
2019-04-29T22:50:45.487Z,29.73
2019-04-29T22:53:15.284Z,28.87
2019-04-29T22:55:45.576Z,28.87
2019-04-29T22:58:16.153Z,27.37
2019-04-29T23:00:46.866Z,28.33
2019-04-29T23:03:17.449Z,29.10
2019-04-29T23:05:48.272Z,29.67
2019-04-29T23:08:18.813Z,29.97
2019-04-29T23:10:49.592Z,29.23
2019-04-29T23:13:20.080Z,30.73
2019-04-29T23:15:53.824Z,31.10
2019-04-29T23:18:26.785Z,32.33
2019-04-29T23:20:59.558Z,31.97
2019-04-29T23:23:33.413Z,31.57
2019-04-29T23:26:04.197Z,32.37
2019-04-29T23:28:32.253Z,30.57
2019-04-29T23:31:02.752Z,29.37
2019-04-29T23:33:33.286Z,30.83
2019-04-29T23:36:03.889Z,31.27
2019-04-29T23:38:34.441Z,30.73
2019-04-29T23:41:05.121Z,31.97
2019-04-29T23:43:35.700Z,30.43
2019-04-29T23:46:06.240Z,31.47
2019-04-29T23:48:39.612Z,32.80
2019-04-29T23:51:07.500Z,34.30
2019-04-29T23:53:38.062Z,31.87
2019-04-29T23:56:09.644Z,36.93
2019-04-29T23:58:46.794Z,35.93
